createdAt,value
2018-12-31T00:02:09.467Z,3.52
2018-12-31T00:04:40.384Z,3.53
2018-12-31T00:07:11.302Z,3.53
2018-12-31T00:09:42.234Z,3.51
2018-12-31T00:12:13.208Z,3.47
2018-12-31T00:14:44.175Z,3.52
2018-12-31T00:17:15.090Z,3.50
2018-12-31T00:19:46.002Z,3.45
2018-12-31T00:22:16.954Z,3.41
2018-12-31T00:24:47.954Z,3.42
2018-12-31T00:27:18.873Z,3.37
2018-12-31T00:29:49.780Z,3.39
2018-12-31T00:32:20.704Z,3.37
2018-12-31T00:34:51.611Z,3.37
2018-12-31T00:37:22.549Z,3.39
2018-12-31T00:39:53.467Z,3.35
2018-12-31T00:42:24.428Z,3.26
2018-12-31T00:44:55.299Z,3.27
2018-12-31T00:47:26.262Z,3.28
2018-12-31T00:49:57.521Z,3.21
2018-12-31T00:52:28.424Z,3.27
2018-12-31T00:54:59.379Z,3.24
2018-12-31T00:57:30.300Z,3.19
2018-12-31T01:00:01.325Z,3.27
2018-12-31T01:02:33.105Z,3.18
2018-12-31T01:05:04.073Z,3.19
2018-12-31T01:07:34.975Z,3.14
2018-12-31T01:10:06.107Z,3.12
2018-12-31T01:12:37.064Z,3.12
2018-12-31T01:15:08.042Z,3.20
2018-12-31T01:17:39.013Z,3.19
2018-12-31T01:20:09.959Z,3.10
2018-12-31T01:22:40.893Z,3.13
2018-12-31T01:25:11.800Z,3.12
2018-12-31T01:27:42.745Z,3.14
2018-12-31T01:30:13.669Z,3.04
2018-12-31T01:32:44.648Z,3.07
2018-12-31T01:35:15.565Z,3.06
2018-12-31T01:37:46.505Z,3.00
2018-12-31T01:40:17.489Z,2.99
2018-12-31T01:42:48.443Z,3.02
2018-12-31T01:45:19.368Z,2.94
2018-12-31T01:47:50.283Z,2.95
2018-12-31T01:50:21.220Z,2.97
2018-12-31T01:52:52.141Z,2.95
2018-12-31T01:55:23.158Z,2.94
2018-12-31T01:57:54.057Z,2.96
2018-12-31T02:00:25.027Z,3.00
2018-12-31T02:02:55.943Z,3.00
2018-12-31T02:05:26.880Z,2.94
2018-12-31T02:07:57.809Z,2.92
2018-12-31T02:10:28.750Z,2.96
2018-12-31T02:12:59.696Z,2.92
2018-12-31T02:15:30.647Z,2.91
2018-12-31T02:18:01.571Z,2.92
2018-12-31T02:20:32.542Z,2.92
2018-12-31T02:23:03.473Z,2.91
2018-12-31T02:25:34.393Z,2.91
2018-12-31T02:28:05.659Z,2.91
2018-12-31T02:30:36.661Z,2.94
2018-12-31T02:33:07.602Z,2.97
2018-12-31T02:35:38.596Z,2.93
2018-12-31T02:38:09.532Z,2.90
2018-12-31T02:40:40.437Z,2.90
2018-12-31T02:43:11.590Z,2.88
2018-12-31T02:45:42.510Z,2.84
2018-12-31T02:48:13.745Z,2.77
2018-12-31T02:50:47.755Z,2.87
2018-12-31T02:53:21.094Z,2.84
2018-12-31T02:55:52.015Z,2.79
2018-12-31T02:58:22.958Z,2.78
2018-12-31T03:00:53.877Z,2.77
2018-12-31T03:03:24.788Z,2.76
2018-12-31T03:05:55.744Z,2.78
2018-12-31T03:08:29.766Z,2.71
2018-12-31T03:11:00.708Z,2.73
2018-12-31T03:13:36.455Z,2.69
2018-12-31T03:16:07.418Z,2.62
2018-12-31T03:18:38.407Z,2.52
2018-12-31T03:21:09.397Z,2.55
2018-12-31T03:23:40.394Z,2.55
2018-12-31T03:26:11.313Z,2.47
2018-12-31T03:28:42.346Z,2.39
2018-12-31T03:31:13.331Z,2.40
2018-12-31T03:33:44.222Z,2.35
2018-12-31T03:36:15.152Z,2.41
2018-12-31T03:38:46.108Z,2.42
2018-12-31T03:41:17.033Z,2.35
2018-12-31T03:43:47.981Z,2.30
2018-12-31T03:46:18.917Z,2.26
2018-12-31T03:48:49.842Z,2.28
2018-12-31T03:51:20.836Z,2.27
2018-12-31T03:53:51.755Z,2.26
2018-12-31T03:56:22.659Z,2.28
2018-12-31T03:58:53.569Z,2.20
2018-12-31T04:01:24.491Z,2.15
2018-12-31T04:03:55.406Z,2.12
2018-12-31T04:06:26.326Z,2.21
2018-12-31T04:08:57.238Z,2.17
2018-12-31T04:11:28.162Z,2.03
2018-12-31T04:13:59.071Z,2.03
2018-12-31T04:16:29.999Z,2.00
2018-12-31T04:19:02.003Z,1.99
2018-12-31T04:21:32.927Z,2.05
2018-12-31T04:24:03.864Z,1.99
2018-12-31T04:26:34.803Z,1.92
2018-12-31T04:29:05.759Z,1.98
2018-12-31T04:31:36.667Z,1.99
2018-12-31T04:34:07.591Z,1.89
2018-12-31T04:36:38.535Z,1.81
2018-12-31T04:39:09.471Z,1.87
2018-12-31T04:41:40.393Z,1.82
2018-12-31T04:44:11.307Z,1.92
2018-12-31T04:46:42.236Z,1.94
2018-12-31T04:49:13.220Z,1.90
2018-12-31T04:51:44.138Z,1.91
2018-12-31T04:54:15.081Z,1.94
2018-12-31T04:56:46.073Z,2.02
2018-12-31T04:59:17.021Z,2.00
2018-12-31T05:01:47.989Z,1.96
2018-12-31T05:04:18.948Z,2.00
2018-12-31T05:06:49.852Z,2.04
2018-12-31T05:09:20.794Z,2.01
2018-12-31T05:11:51.705Z,2.01
2018-12-31T05:14:22.632Z,2.03
2018-12-31T05:16:53.580Z,2.05
2018-12-31T05:19:24.508Z,2.05
2018-12-31T05:21:55.444Z,2.03
2018-12-31T05:24:26.449Z,2.12
2018-12-31T05:26:57.429Z,2.06
2018-12-31T05:29:28.367Z,2.01
2018-12-31T05:31:59.284Z,2.02
2018-12-31T05:34:30.208Z,2.01
2018-12-31T05:37:01.133Z,2.01
2018-12-31T05:39:32.062Z,2.00
2018-12-31T05:42:02.988Z,1.93
2018-12-31T05:44:33.925Z,1.99
2018-12-31T05:47:07.700Z,1.93
2018-12-31T05:49:38.693Z,1.88
2018-12-31T05:52:09.605Z,1.90
2018-12-31T05:54:40.661Z,1.92
2018-12-31T05:57:11.655Z,1.80
2018-12-31T05:59:42.550Z,1.78
2018-12-31T06:02:13.478Z,1.87
2018-12-31T06:04:44.423Z,1.86
2018-12-31T06:07:15.335Z,1.77
2018-12-31T06:09:46.252Z,1.75
2018-12-31T06:12:17.165Z,1.71
2018-12-31T06:14:49.149Z,1.72
2018-12-31T06:17:20.075Z,1.69
2018-12-31T06:19:51.006Z,1.69
2018-12-31T06:22:21.956Z,1.66
2018-12-31T06:24:52.879Z,1.69
2018-12-31T06:27:23.822Z,1.72
2018-12-31T06:29:54.749Z,1.67
2018-12-31T06:32:25.660Z,1.71
2018-12-31T06:34:56.868Z,1.60
2018-12-31T06:37:27.800Z,1.62
2018-12-31T06:39:58.698Z,1.67
2018-12-31T06:42:29.640Z,1.62
2018-12-31T06:45:00.611Z,1.72
2018-12-31T06:47:31.567Z,1.65
2018-12-31T06:50:02.486Z,1.65
2018-12-31T06:52:34.563Z,1.62
2018-12-31T06:55:05.659Z,1.68
2018-12-31T06:57:36.604Z,1.69
2018-12-31T07:00:07.604Z,1.73
2018-12-31T07:02:38.593Z,1.78
2018-12-31T07:05:09.556Z,1.77
2018-12-31T07:07:40.611Z,1.84
2018-12-31T07:10:11.600Z,1.84
2018-12-31T07:12:42.582Z,1.80
2018-12-31T07:15:13.496Z,1.74
2018-12-31T07:17:44.449Z,1.72
2018-12-31T07:20:15.400Z,1.67
2018-12-31T07:22:46.481Z,1.65
2018-12-31T07:25:17.416Z,1.73
2018-12-31T07:27:48.384Z,1.71
2018-12-31T07:30:19.396Z,1.70
2018-12-31T07:32:50.398Z,1.82
2018-12-31T07:35:21.306Z,1.72
2018-12-31T07:37:52.210Z,1.72
2018-12-31T07:40:23.188Z,1.74
2018-12-31T07:42:54.097Z,1.80
2018-12-31T07:45:25.018Z,1.86
2018-12-31T07:47:56.040Z,1.90
2018-12-31T07:50:28.163Z,1.88
2018-12-31T07:52:59.237Z,1.92
2018-12-31T07:55:30.226Z,2.02
2018-12-31T07:58:01.147Z,2.30
2018-12-31T08:00:32.126Z,2.25
2018-12-31T08:03:03.067Z,2.31
2018-12-31T08:05:34.067Z,2.27
2018-12-31T08:08:05.033Z,2.33
2018-12-31T08:10:36.086Z,2.41
2018-12-31T08:13:07.118Z,2.59
2018-12-31T08:15:38.272Z,2.67
2018-12-31T08:18:09.313Z,2.58
2018-12-31T08:20:40.276Z,2.61
2018-12-31T08:23:11.218Z,2.56
2018-12-31T08:25:42.170Z,2.57
2018-12-31T08:28:13.112Z,2.62
2018-12-31T08:30:44.149Z,2.59
2018-12-31T08:33:15.039Z,2.59
2018-12-31T08:35:45.986Z,2.67
2018-12-31T08:38:16.925Z,2.67
2018-12-31T08:40:47.907Z,2.59
2018-12-31T08:43:18.838Z,2.59
2018-12-31T08:45:49.807Z,2.51
2018-12-31T08:48:20.762Z,2.61
2018-12-31T08:50:51.737Z,2.75
2018-12-31T08:53:22.666Z,2.77
2018-12-31T08:55:53.711Z,2.94
2018-12-31T08:58:24.667Z,2.91
2018-12-31T09:00:55.602Z,2.94
2018-12-31T09:03:26.546Z,3.02
2018-12-31T09:05:57.524Z,3.04
2018-12-31T09:08:28.799Z,3.11
2018-12-31T09:10:59.743Z,3.06
2018-12-31T09:13:30.794Z,3.02
2018-12-31T09:16:01.788Z,2.99
2018-12-31T09:18:32.897Z,2.97
2018-12-31T09:21:03.766Z,3.02
2018-12-31T09:23:34.806Z,2.87
2018-12-31T09:26:05.875Z,2.83
2018-12-31T09:28:36.798Z,2.91
2018-12-31T09:31:07.919Z,2.82
2018-12-31T09:33:38.903Z,2.82
2018-12-31T09:36:09.832Z,2.79
2018-12-31T09:38:40.820Z,2.85
2018-12-31T09:41:11.837Z,2.89
2018-12-31T09:43:42.805Z,2.96
2018-12-31T09:46:13.773Z,3.07
2018-12-31T09:48:44.688Z,3.13
2018-12-31T09:51:15.637Z,3.21
2018-12-31T09:53:46.567Z,3.13
2018-12-31T09:56:17.525Z,3.02
2018-12-31T09:58:48.465Z,3.01
2018-12-31T10:01:19.435Z,3.19
2018-12-31T10:03:50.408Z,3.18
2018-12-31T10:06:21.363Z,3.16
2018-12-31T10:08:52.380Z,3.18
2018-12-31T10:11:23.367Z,3.23
2018-12-31T10:13:54.396Z,3.26
2018-12-31T10:16:25.345Z,3.33
2018-12-31T10:18:56.484Z,3.33
2018-12-31T10:21:27.418Z,3.33
2018-12-31T10:23:58.441Z,3.37
2018-12-31T10:26:29.378Z,3.27
2018-12-31T10:29:00.346Z,3.30
2018-12-31T10:31:31.309Z,3.35
2018-12-31T10:34:02.252Z,3.42
2018-12-31T10:36:33.211Z,3.47
2018-12-31T10:39:05.534Z,3.51
2018-12-31T10:41:36.585Z,3.40
2018-12-31T10:44:07.591Z,3.40
2018-12-31T10:46:38.554Z,3.44
2018-12-31T10:49:09.559Z,3.55
2018-12-31T10:51:40.618Z,3.55
2018-12-31T10:54:11.623Z,3.57
2018-12-31T10:56:42.562Z,3.56
2018-12-31T10:59:13.629Z,3.63
2018-12-31T11:01:44.551Z,3.71
2018-12-31T11:04:15.636Z,3.61
2018-12-31T11:06:46.801Z,3.71
2018-12-31T11:09:17.759Z,3.72
2018-12-31T11:11:48.734Z,3.67
2018-12-31T11:14:19.807Z,3.62
2018-12-31T11:16:50.809Z,3.57
2018-12-31T11:19:21.789Z,3.56
2018-12-31T11:21:52.723Z,3.67
2018-12-31T11:24:23.759Z,3.74
2018-12-31T11:26:54.735Z,3.80
2018-12-31T11:29:25.730Z,3.79
2018-12-31T11:31:56.626Z,3.75
2018-12-31T11:34:27.597Z,3.74
2018-12-31T11:36:58.556Z,3.79
2018-12-31T11:39:30.620Z,3.71
2018-12-31T11:42:01.640Z,3.70
2018-12-31T11:44:32.663Z,3.72
2018-12-31T11:47:03.762Z,3.80
2018-12-31T11:49:34.774Z,3.82
2018-12-31T11:52:05.705Z,3.77
2018-12-31T11:54:36.672Z,3.93
2018-12-31T11:57:07.612Z,3.78
2018-12-31T11:59:38.785Z,3.78
2018-12-31T12:02:09.720Z,3.65
2018-12-31T12:04:40.688Z,3.74
2018-12-31T12:07:11.685Z,3.74
2018-12-31T12:09:42.691Z,3.74
2018-12-31T12:12:13.709Z,3.68
2018-12-31T12:14:44.760Z,3.69
2018-12-31T12:17:15.758Z,3.68
2018-12-31T12:19:46.717Z,3.73
2018-12-31T12:22:17.666Z,3.70
2018-12-31T12:24:48.927Z,3.76
2018-12-31T12:27:19.891Z,3.72
2018-12-31T12:29:51.014Z,3.70
2018-12-31T12:32:22.036Z,3.72
2018-12-31T12:34:52.937Z,3.69
2018-12-31T12:37:23.897Z,3.68
2018-12-31T12:39:54.939Z,3.71
2018-12-31T12:42:26.105Z,3.79
2018-12-31T12:44:57.203Z,3.80
2018-12-31T12:47:28.577Z,3.83
2018-12-31T12:49:59.553Z,3.78
2018-12-31T12:52:30.523Z,3.78
2018-12-31T12:55:01.518Z,3.80
2018-12-31T12:57:35.917Z,3.72
2018-12-31T13:00:07.589Z,3.87
2018-12-31T13:02:38.692Z,3.90
2018-12-31T13:05:10.890Z,3.87
2018-12-31T13:07:42.232Z,3.83
2018-12-31T13:10:13.456Z,3.78
2018-12-31T13:12:44.536Z,3.82
2018-12-31T13:15:15.578Z,3.76
2018-12-31T13:17:46.947Z,3.84
2018-12-31T13:20:21.100Z,3.90
2018-12-31T13:22:52.128Z,3.87
2018-12-31T13:25:23.121Z,3.93
2018-12-31T13:27:54.190Z,3.92
2018-12-31T13:30:25.680Z,3.83
2018-12-31T13:33:00.020Z,3.78
2018-12-31T13:35:33.680Z,3.89
2018-12-31T13:38:04.698Z,3.90
2018-12-31T13:40:35.796Z,3.90
2018-12-31T13:43:06.934Z,4.00
2018-12-31T13:45:38.074Z,3.98
2018-12-31T13:48:36.157Z,4.00
2018-12-31T13:51:12.965Z,4.00
2018-12-31T13:53:44.035Z,4.10
2018-12-31T13:56:17.537Z,4.18
2018-12-31T13:58:48.022Z,4.09
2018-12-31T14:01:19.297Z,4.16
2018-12-31T14:03:50.294Z,4.21
2018-12-31T14:06:21.648Z,4.20
2018-12-31T14:08:52.703Z,4.11
2018-12-31T14:11:23.661Z,4.13
2018-12-31T14:13:54.934Z,4.07
2018-12-31T14:16:26.292Z,3.96
2018-12-31T14:18:58.569Z,3.92
2018-12-31T14:21:29.631Z,3.87
2018-12-31T14:24:00.560Z,3.84
2018-12-31T14:26:31.997Z,3.80
2018-12-31T14:29:26.761Z,3.83
2018-12-31T14:32:00.811Z,3.86
2018-12-31T14:34:32.264Z,3.81
2018-12-31T14:37:03.336Z,3.85
2018-12-31T14:39:34.475Z,3.83
2018-12-31T14:42:05.497Z,3.83
2018-12-31T14:44:36.516Z,3.94
2018-12-31T14:47:07.603Z,3.89
2018-12-31T14:49:46.861Z,3.90
2018-12-31T14:52:17.892Z,3.86
2018-12-31T14:54:49.168Z,3.86
2018-12-31T14:57:20.217Z,3.82
2018-12-31T14:59:51.488Z,3.80
2018-12-31T15:02:22.522Z,3.82
2018-12-31T15:05:01.206Z,3.79
2018-12-31T15:07:32.531Z,3.70
2018-12-31T15:10:03.633Z,3.61
2018-12-31T15:12:34.723Z,3.61
2018-12-31T15:15:06.032Z,3.59
2018-12-31T15:17:37.717Z,3.58
2018-12-31T15:20:11.145Z,3.72
2018-12-31T15:22:43.420Z,3.70
2018-12-31T15:25:14.441Z,3.79
2018-12-31T15:27:45.496Z,3.72
2018-12-31T15:30:16.513Z,3.64
2018-12-31T15:32:47.446Z,3.62
2018-12-31T15:35:18.460Z,3.67
2018-12-31T15:37:49.539Z,3.63
2018-12-31T15:40:20.566Z,3.69
2018-12-31T15:42:51.621Z,3.68
2018-12-31T15:45:22.634Z,3.72
2018-12-31T15:47:54.033Z,3.69
2018-12-31T15:50:24.985Z,3.71
2018-12-31T15:52:55.974Z,3.78
2018-12-31T15:55:26.927Z,3.76
2018-12-31T15:57:57.878Z,3.69
2018-12-31T16:00:31.792Z,3.61
2018-12-31T16:03:02.714Z,3.57
2018-12-31T16:05:33.636Z,3.52
2018-12-31T16:08:04.831Z,3.44
2018-12-31T16:10:35.804Z,3.42
2018-12-31T16:13:06.911Z,3.44
2018-12-31T16:15:38.663Z,3.44
2018-12-31T16:18:09.661Z,3.46
2018-12-31T16:20:40.915Z,3.47
2018-12-31T16:23:11.839Z,3.49
2018-12-31T16:25:42.776Z,3.60
2018-12-31T16:28:13.757Z,3.69
2018-12-31T16:30:45.006Z,3.72
2018-12-31T16:33:16.006Z,3.84
2018-12-31T16:35:47.007Z,3.81
2018-12-31T16:38:17.936Z,3.81
2018-12-31T16:40:48.943Z,3.85
2018-12-31T16:43:19.892Z,3.79
2018-12-31T16:45:50.996Z,3.69
2018-12-31T16:48:22.019Z,3.58
2018-12-31T16:50:52.954Z,3.55
2018-12-31T16:53:24.337Z,3.55
2018-12-31T16:55:55.257Z,3.45
2018-12-31T16:58:26.180Z,3.36
2018-12-31T17:00:57.211Z,3.37
2018-12-31T17:03:28.244Z,3.38
2018-12-31T17:05:59.192Z,3.35
2018-12-31T17:08:30.127Z,3.29
2018-12-31T17:11:01.070Z,3.26
2018-12-31T17:13:32.010Z,3.27
2018-12-31T17:16:02.944Z,3.30
2018-12-31T17:18:33.908Z,3.35
2018-12-31T17:21:04.984Z,3.27
2018-12-31T17:23:36.058Z,3.26
2018-12-31T17:26:07.193Z,3.26
2018-12-31T17:28:38.246Z,3.18
2018-12-31T17:31:09.196Z,3.24
2018-12-31T17:33:40.184Z,3.21
2018-12-31T17:36:16.613Z,3.19
2018-12-31T17:38:49.003Z,3.20
2018-12-31T17:41:20.182Z,3.19
2018-12-31T17:43:51.341Z,3.15
2018-12-31T17:46:22.343Z,3.13
2018-12-31T17:48:53.624Z,3.12
2018-12-31T17:51:24.564Z,3.14
2018-12-31T17:53:55.524Z,3.18
2018-12-31T17:56:26.549Z,3.13
2018-12-31T17:58:57.689Z,3.11
2018-12-31T18:01:28.645Z,3.19
2018-12-31T18:03:59.560Z,3.13
2018-12-31T18:06:30.521Z,3.09
2018-12-31T18:09:03.599Z,3.15
2018-12-31T18:11:35.245Z,3.06
2018-12-31T18:14:06.210Z,3.08
2018-12-31T18:16:37.177Z,3.07
2018-12-31T18:19:08.267Z,3.03
2018-12-31T18:21:39.638Z,3.01
2018-12-31T18:24:10.690Z,3.00
2018-12-31T18:26:41.631Z,2.98
2018-12-31T18:29:12.618Z,3.02
2018-12-31T18:31:43.677Z,3.10
2018-12-31T18:34:14.769Z,3.10
2018-12-31T18:36:45.720Z,3.22
2018-12-31T18:39:16.745Z,3.23
2018-12-31T18:41:47.750Z,3.17
2018-12-31T18:44:18.868Z,3.19
2018-12-31T18:46:50.212Z,3.13
2018-12-31T18:49:21.224Z,3.20
2018-12-31T18:51:52.182Z,3.22
2018-12-31T18:54:23.170Z,3.19
2018-12-31T18:56:54.153Z,3.24
2018-12-31T18:59:25.105Z,3.25
2018-12-31T19:01:56.132Z,3.19
2018-12-31T19:04:27.098Z,3.11
2018-12-31T19:06:58.380Z,3.17
2018-12-31T19:09:29.432Z,3.12
2018-12-31T19:12:00.436Z,3.22
2018-12-31T19:14:31.393Z,3.21
2018-12-31T19:17:02.456Z,3.21
2018-12-31T19:19:33.573Z,3.20
2018-12-31T19:22:04.643Z,3.11
2018-12-31T19:24:35.625Z,3.13
2018-12-31T19:27:06.679Z,3.17
2018-12-31T19:29:37.617Z,3.10
2018-12-31T19:32:08.657Z,3.10
2018-12-31T19:34:39.686Z,3.07
2018-12-31T19:37:10.773Z,3.08
2018-12-31T19:39:41.816Z,3.05
2018-12-31T19:42:12.756Z,3.04
2018-12-31T19:44:43.716Z,3.06
2018-12-31T19:47:14.687Z,3.05
2018-12-31T19:49:45.657Z,3.04
2018-12-31T19:52:16.584Z,3.09
2018-12-31T19:54:47.578Z,3.06
2018-12-31T19:57:18.528Z,3.04
2018-12-31T19:59:49.468Z,3.06
2018-12-31T20:02:20.668Z,3.00
2018-12-31T20:04:51.617Z,2.99
2018-12-31T20:07:22.550Z,3.02
2018-12-31T20:09:53.487Z,3.07
2018-12-31T20:12:25.495Z,3.01
2018-12-31T20:14:56.448Z,3.02
2018-12-31T20:17:27.397Z,2.99
2018-12-31T20:19:58.330Z,2.97
2018-12-31T20:22:29.296Z,2.92
2018-12-31T20:25:00.751Z,2.87
2018-12-31T20:27:31.643Z,2.84
2018-12-31T20:30:02.594Z,2.81
2018-12-31T20:32:33.618Z,2.83
2018-12-31T20:35:05.529Z,2.79
2018-12-31T20:37:36.644Z,2.77
2018-12-31T20:40:07.613Z,2.79
2018-12-31T20:42:38.697Z,2.78
2018-12-31T20:45:09.634Z,2.77
2018-12-31T20:47:40.597Z,2.76
2018-12-31T20:50:11.534Z,2.72
2018-12-31T20:52:42.538Z,2.69
2018-12-31T20:55:13.476Z,2.73
2018-12-31T20:57:44.387Z,2.75
2018-12-31T21:00:15.385Z,2.78
2018-12-31T21:02:46.373Z,2.79
2018-12-31T21:05:17.325Z,2.76
2018-12-31T21:07:48.399Z,2.77
2018-12-31T21:10:19.507Z,2.81
2018-12-31T21:12:50.719Z,2.79
2018-12-31T21:15:21.634Z,2.81
2018-12-31T21:17:52.671Z,2.80
2018-12-31T21:20:23.688Z,2.76
2018-12-31T21:22:54.725Z,2.83
2018-12-31T21:25:25.676Z,2.80
2018-12-31T21:27:56.719Z,2.79
2018-12-31T21:30:27.724Z,2.86
2018-12-31T21:32:58.777Z,2.83
2018-12-31T21:35:31.072Z,2.85
2018-12-31T21:38:02.167Z,2.91
2018-12-31T21:40:33.108Z,2.93
2018-12-31T21:43:04.123Z,2.92
2018-12-31T21:45:35.086Z,2.92
2018-12-31T21:48:06.065Z,2.89
2018-12-31T21:50:37.075Z,2.96
2018-12-31T21:53:08.067Z,2.99
2018-12-31T21:55:39.117Z,2.99
2018-12-31T21:58:10.349Z,3.01
2018-12-31T22:00:41.382Z,2.98
2018-12-31T22:03:12.324Z,3.01
2018-12-31T22:05:43.374Z,3.07
2018-12-31T22:08:14.443Z,3.13
2018-12-31T22:10:45.418Z,3.16
2018-12-31T22:13:16.373Z,3.17
2018-12-31T22:15:47.414Z,3.14
2018-12-31T22:18:18.467Z,3.16
2018-12-31T22:20:50.527Z,3.19
2018-12-31T22:23:21.634Z,3.21
2018-12-31T22:25:52.641Z,3.14
2018-12-31T22:28:23.735Z,3.19
2018-12-31T22:30:54.706Z,3.21
2018-12-31T22:33:25.718Z,3.28
2018-12-31T22:35:56.693Z,3.24
2018-12-31T22:38:27.835Z,3.27
2018-12-31T22:40:58.788Z,3.32
2018-12-31T22:43:30.081Z,3.32
2018-12-31T22:46:01.010Z,3.32
2018-12-31T22:48:32.008Z,3.41
2018-12-31T22:51:03.024Z,3.44
2018-12-31T22:53:34.038Z,3.45
2018-12-31T22:56:05.018Z,3.48
2018-12-31T22:58:35.974Z,3.53
2018-12-31T23:01:07.014Z,3.53
2018-12-31T23:03:38.225Z,3.53
2018-12-31T23:06:09.394Z,3.56
2018-12-31T23:08:40.337Z,3.58
2018-12-31T23:11:11.313Z,3.63
2018-12-31T23:13:42.955Z,3.62
2018-12-31T23:16:17.701Z,3.66
2018-12-31T23:18:48.634Z,3.65
2018-12-31T23:21:19.557Z,3.64
2018-12-31T23:23:50.522Z,3.61
2018-12-31T23:26:22.023Z,3.59
2018-12-31T23:28:53.038Z,3.59
2018-12-31T23:31:24.130Z,3.59
2018-12-31T23:33:55.459Z,3.63
2018-12-31T23:36:26.413Z,3.63
2018-12-31T23:39:05.061Z,3.64
2018-12-31T23:41:30.097Z,3.67
2018-12-31T23:44:01.047Z,3.68
2018-12-31T23:46:32.081Z,3.69
2018-12-31T23:49:03.309Z,3.75
2018-12-31T23:51:34.342Z,3.76
2018-12-31T23:54:05.342Z,3.79
2018-12-31T23:56:36.337Z,3.83
2018-12-31T23:59:07.273Z,3.81
